Time;durP1;ratioP1;P1;durP2;ratioP2;P2;SDS_P1;SDS_P2;PMS_P1;PMS_P2;Temp;Humidity;BMP_temperature;BMP_pressure;BME280_temperature;BME280_humidity;BME280_pressure;Samples;Min_cycle;Max_cycle;Signal;HPM_P1;HPM_P2
2022/01/01 00:01:41;;;;;;;26.70;11.10;;;;;;;15.30;94.37;101421.75;5050752;28;20033;-76
2022/01/01 00:04:09;;;;;;;28.63;11.13;;;;;;;15.34;94.52;101428.00;5050372;28;20049;-75
2022/01/01 00:06:37;;;;;;;26.55;13.15;;;;;;;15.35;94.51;101416.47;5050715;28;20041;-77
2022/01/01 00:09:06;;;;;;;26.20;12.43;;;;;;;15.38;94.62;101405.84;5049062;28;20106;-77
2022/01/01 00:11:34;;;;;;;24.73;12.07;;;;;;;15.38;94.68;101406.72;5049224;28;20119;-77
2022/01/01 00:14:01;;;;;;;30.15;11.63;;;;;;;15.39;94.66;101403.19;5048333;28;20106;-77
2022/01/01 00:16:29;;;;;;;25.55;11.13;;;;;;;15.42;94.69;101405.91;5048827;28;20126;-77
2022/01/01 00:18:57;;;;;;;30.10;12.57;;;;;;;15.43;94.62;101402.31;5048741;28;20040;-77
2022/01/01 00:21:25;;;;;;;25.50;12.70;;;;;;;15.45;94.54;101405.91;5048023;28;20048;-77
2022/01/01 00:23:53;;;;;;;25.52;10.77;;;;;;;15.45;94.56;101400.56;5048599;28;20045;-76
2022/01/01 00:26:22;;;;;;;28.75;11.50;;;;;;;15.46;94.58;101398.81;5050232;28;20099;-76
2022/01/01 00:28:50;;;;;;;30.20;13.23;;;;;;;15.43;94.57;101404.09;5048426;28;20041;-76
2022/01/01 00:31:18;;;;;;;27.85;11.30;;;;;;;15.43;94.47;101410.31;5049785;28;20090;-76
2022/01/01 00:33:45;;;;;;;22.45;10.93;;;;;;;15.43;94.46;101404.09;5049207;28;20098;-76
2022/01/01 00:36:13;;;;;;;25.58;11.25;;;;;;;15.42;94.55;101405.91;5064904;28;20478;-75
2022/01/01 00:38:41;;;;;;;25.35;10.43;;;;;;;15.41;94.50;101403.22;5048448;28;20041;-75
2022/01/01 00:41:08;;;;;;;24.17;11.18;;;;;;;15.42;94.44;101418.31;5049897;28;20128;-76
2022/01/01 00:43:37;;;;;;;23.30;9.90;;;;;;;15.43;94.47;101407.66;5048821;28;20048;-75
2022/01/01 00:46:05;;;;;;;24.25;11.20;;;;;;;15.41;94.40;101412.09;5061744;28;20069;-75
2022/01/01 00:48:33;;;;;;;25.17;12.43;;;;;;;15.42;94.41;101407.66;5047023;28;20559;-75
2022/01/01 00:51:00;;;;;;;26.35;10.35;;;;;;;15.42;94.46;101394.34;5049625;28;20128;-75
2022/01/01 00:53:28;;;;;;;21.52;11.02;;;;;;;15.43;94.58;101398.78;5047249;28;20072;-75
2022/01/01 00:55:56;;;;;;;28.10;12.80;;;;;;;15.43;94.42;101399.66;5049379;28;20040;-74
2022/01/01 00:58:23;;;;;;;33.38;12.38;;;;;;;15.45;94.49;101399.69;5048045;28;20136;-75
2022/01/01 01:00:52;;;;;;;26.95;12.50;;;;;;;15.48;94.43;101405.03;5061247;28;20041;-73
2022/01/01 01:03:20;;;;;;;26.45;12.98;;;;;;;15.48;94.35;101402.38;5049215;28;20460;-74
2022/01/01 01:05:48;;;;;;;24.92;11.07;;;;;;;15.49;94.35;101407.69;5049454;28;20065;-73
2022/01/01 01:08:18;;;;;;;33.45;12.52;;;;;;;15.50;94.30;101405.91;5048323;28;20064;-74
2022/01/01 01:10:47;;;;;;;25.95;10.88;;;;;;;15.51;94.23;101405.03;5048519;28;20040;-73
2022/01/01 01:13:15;;;;;;;31.50;14.60;;;;;;;15.52;94.43;101414.81;5049336;28;20045;-74
2022/01/01 01:15:44;;;;;;;28.02;13.65;;;;;;;15.53;94.36;101416.63;5048093;28;20041;-74
2022/01/01 01:18:14;;;;;;;29.17;11.52;;;;;;;15.53;94.33;101412.19;5048370;28;20056;-74
2022/01/01 01:20:42;;;;;;;33.70;14.48;;;;;;;15.51;94.29;101411.25;5047989;28;20040;-73
2022/01/01 01:23:10;;;;;;;31.15;13.90;;;;;;;15.53;94.32;101405.97;5048397;28;20068;-74
2022/01/01 01:25:40;;;;;;;26.77;14.98;;;;;;;15.51;94.25;101411.25;5049466;28;20132;-74
2022/01/01 01:28:09;;;;;;;27.73;13.05;;;;;;;15.54;94.30;101408.66;5048874;28;20045;-74
2022/01/01 01:30:38;;;;;;;25.13;11.45;;;;;;;15.53;94.26;101406.88;5026476;28;20045;-73
2022/01/01 01:33:06;;;;;;;24.48;11.55;;;;;;;15.54;94.41;101408.66;5049123;28;20490;-73
2022/01/01 01:35:36;;;;;;;32.53;14.88;;;;;;;15.56;94.40;101411.31;5031541;28;20052;-73
2022/01/01 01:38:04;;;;;;;32.50;12.70;;;;;;;15.56;94.50;101403.31;5031110;28;20456;-73
2022/01/01 01:40:32;;;;;;;38.10;13.15;;;;;;;15.56;94.49;101405.97;5031457;28;20144;-73
2022/01/01 01:43:00;;;;;;;23.02;10.68;;;;;;;15.57;94.49;101405.09;5032609;28;20134;-74
2022/01/01 01:45:28;;;;;;;28.30;11.55;;;;;;;15.57;94.47;101394.47;5030374;28;20041;-73
2022/01/01 01:47:56;;;;;;;30.88;12.60;;;;;;;15.59;94.53;101398.03;5032847;28;20049;-73
2022/01/01 01:50:25;;;;;;;31.88;11.40;;;;;;;15.59;94.58;101400.69;5031437;28;20041;-74
2022/01/01 01:52:56;;;;;;;27.42;11.15;;;;;;;15.60;94.57;101399.81;5030763;28;20045;-73
2022/01/01 01:55:27;;;;;;;24.42;11.32;;;;;;;15.60;94.56;101404.25;5031437;28;20382;-74
2022/01/01 01:57:56;;;;;;;22.95;10.63;;;;;;;15.61;94.58;101409.59;5030996;28;20045;-74
2022/01/01 02:00:50;;;;;;;29.40;11.50;;;;;;;15.61;94.71;101417.56;5031780;28;20048;-74
2022/01/01 02:03:18;;;;;;;32.47;10.82;;;;;;;15.62;94.67;101416.66;5032080;28;20375;-73
2022/01/01 02:05:47;;;;;;;28.08;10.68;;;;;;;15.65;94.75;101418.44;5032450;28;20148;-73
2022/01/01 02:08:17;;;;;;;24.67;12.20;;;;;;;15.65;94.83;101414.03;5030480;28;20052;-73
2022/01/01 02:10:51;;;;;;;19.98;10.55;;;;;;;15.66;94.82;101412.25;5032694;28;20067;-73
2022/01/01 02:13:24;;;;;;;21.85;10.25;;;;;;;15.64;94.82;101409.56;5030660;28;20045;-73
2022/01/01 02:16:13;;;;;;;28.65;11.07;;;;;;;15.65;94.81;101410.47;5032365;28;20029;-76
2022/01/01 02:18:44;;;;;;;25.48;10.30;;;;;;;15.66;94.80;101406.94;5014356;28;20436;-74
2022/01/01 02:21:14;;;;;;;26.98;12.02;;;;;;;15.64;94.79;101406.91;5031540;28;20045;-73
2022/01/01 02:23:44;;;;;;;27.42;12.20;;;;;;;15.62;94.69;101406.00;5031921;28;20123;-72
2022/01/01 02:26:15;;;;;;;24.00;10.60;;;;;;;15.62;94.67;101407.81;5032032;28;20099;-73
2022/01/01 02:28:44;;;;;;;26.23;10.70;;;;;;;15.60;94.70;101405.13;5032070;28;20057;-72
2022/01/01 02:31:12;;;;;;;24.25;11.60;;;;;;;15.58;94.63;101412.22;5031587;28;20153;-73
2022/01/01 02:33:40;;;;;;;25.02;12.65;;;;;;;15.59;94.61;101407.78;5014073;28;20065;-72
2022/01/01 02:36:07;;;;;;;33.42;15.50;;;;;;;15.61;94.61;101412.25;5030193;28;20111;-72
2022/01/01 02:38:38;;;;;;;28.63;11.77;;;;;;;15.63;94.57;101415.78;5031344;28;20038;-73
2022/01/01 02:41:06;;;;;;;19.27;9.35;;;;;;;15.63;94.57;101420.22;5030207;28;20049;-72
2022/01/01 02:43:45;;;;;;;25.92;11.02;;;;;;;15.65;94.60;101410.47;5031078;28;20126;-72
2022/01/01 02:46:13;;;;;;;24.20;10.65;;;;;;;15.63;94.65;101410.44;5027713;28;20098;-72
2022/01/01 02:48:44;;;;;;;22.65;10.38;;;;;;;15.65;94.63;101419.34;5030346;28;20120;-73
2022/01/01 02:51:11;;;;;;;26.27;11.25;;;;;;;15.66;94.59;101415.81;5047601;28;20045;-72
2022/01/01 02:53:42;;;;;;;22.48;10.35;;;;;;;15.67;94.58;101416.69;5050071;28;20137;-72
2022/01/01 02:56:10;;;;;;;22.42;9.45;;;;;;;15.67;94.64;101414.03;5049693;28;20119;-73
2022/01/01 02:58:38;;;;;;;19.65;8.10;;;;;;;15.66;94.61;101399.84;5030290;28;20124;-72
2022/01/01 03:01:05;;;;;;;27.58;12.05;;;;;;;15.66;94.43;101402.50;5031527;28;20041;-72
2022/01/01 03:03:33;;;;;;;21.13;9.70;;;;;;;15.65;94.62;101400.72;5030848;28;20068;-72
2022/01/01 03:06:00;;;;;;;21.85;9.23;;;;;;;15.66;94.61;101410.47;5031262;28;20490;-72
2022/01/01 03:08:28;;;;;;;20.13;8.80;;;;;;;15.67;94.66;101406.94;5030348;28;20505;-72
2022/01/01 03:10:58;;;;;;;15.55;7.82;;;;;;;15.67;94.57;101408.72;5031169;28;20068;-72
2022/01/01 03:13:25;;;;;;;20.30;9.82;;;;;;;15.64;94.40;101409.56;5030826;28;20037;-72
2022/01/01 03:15:53;;;;;;;24.48;12.48;;;;;;;15.66;94.27;101413.16;5029648;28;20037;-72
2022/01/01 03:18:20;;;;;;;19.13;8.98;;;;;;;15.67;94.27;101420.25;5029567;28;20053;-72
2022/01/01 03:20:48;;;;;;;19.73;8.68;;;;;;;15.69;94.26;101414.91;5031154;28;20132;-72
2022/01/01 03:23:16;;;;;;;20.58;9.73;;;;;;;15.67;94.36;101406.94;5028258;28;20037;-72
2022/01/01 03:25:43;;;;;;;19.83;8.73;;;;;;;15.67;94.32;101411.38;5031103;28;20113;-72
2022/01/01 03:28:13;;;;;;;26.80;9.82;;;;;;;15.69;94.29;101414.91;5029413;28;20405;-72
2022/01/01 03:30:41;;;;;;;26.58;10.02;;;;;;;15.67;94.25;101414.94;5030928;28;20042;-72
2022/01/01 03:33:08;;;;;;;16.73;8.38;;;;;;;15.68;94.25;101423.81;5030922;28;20049;-72
2022/01/01 03:35:36;;;;;;;18.17;9.40;;;;;;;15.69;94.26;101418.47;5014408;28;20117;-73
2022/01/01 03:38:04;;;;;;;18.20;8.80;;;;;;;15.68;94.20;101422.03;5015236;28;20074;-76
2022/01/01 03:40:32;;;;;;;17.73;8.80;;;;;;;15.68;94.08;101419.38;5029469;28;20072;-72
2022/01/01 03:42:59;;;;;;;18.23;8.90;;;;;;;15.65;93.84;101418.44;5029083;28;20125;-72
2022/01/01 03:45:28;;;;;;;15.38;7.93;;;;;;;15.65;93.66;101422.00;5028879;28;20049;-72
2022/01/01 03:47:56;;;;;;;18.33;8.88;;;;;;;15.66;93.76;101428.22;5030244;28;20123;-72
2022/01/01 03:50:24;;;;;;;24.13;9.98;;;;;;;15.65;93.66;101424.66;5029326;28;20048;-72
2022/01/01 03:52:51;;;;;;;20.90;9.90;;;;;;;15.64;93.71;101422.00;5045032;28;20102;-72
2022/01/01 03:55:19;;;;;;;17.35;8.98;;;;;;;15.63;93.63;101425.53;5028912;28;20049;-71
2022/01/01 03:57:46;;;;;;;18.52;8.73;;;;;;;15.63;93.53;101431.75;5028917;28;20037;-72
2022/01/01 04:00:15;;;;;;;20.95;8.95;;;;;;;15.63;93.60;101431.75;5028385;28;20041;-72
2022/01/01 04:02:44;;;;;;;23.52;10.15;;;;;;;15.65;93.49;101429.09;5030316;28;20041;-72
2022/01/01 04:05:12;;;;;;;16.70;9.07;;;;;;;15.66;93.53;101434.44;5029787;28;20041;-72
2022/01/01 04:07:40;;;;;;;17.67;9.65;;;;;;;15.66;93.53;101436.22;5029953;28;20763;-72
2022/01/01 04:10:08;;;;;;;17.45;9.88;;;;;;;15.67;93.47;101432.66;5030187;28;20038;-72
2022/01/01 04:12:36;;;;;;;18.65;9.15;;;;;;;15.64;93.40;101435.31;5028378;28;20463;-72
2022/01/01 04:15:05;;;;;;;23.48;10.77;;;;;;;15.64;93.42;101440.63;5028259;28;20494;-72
2022/01/01 04:17:37;;;;;;;23.10;8.43;;;;;;;15.63;93.55;101436.19;5012374;28;20505;-71
2022/01/01 04:20:08;;;;;;;23.42;11.20;;;;;;;15.66;93.49;101446.84;5029643;28;20455;-72
2022/01/01 04:22:36;;;;;;;20.92;11.65;;;;;;;15.66;93.54;101449.53;5045115;28;20048;-71
2022/01/01 04:25:04;;;;;;;21.85;11.18;;;;;;;15.66;93.50;101453.06;5048002;28;20041;-71
2022/01/01 04:27:32;;;;;;;21.80;9.85;;;;;;;15.60;93.59;101461.03;5048616;28;20056;-72
2022/01/01 04:29:59;;;;;;;21.90;8.88;;;;;;;15.65;93.69;101467.25;5049868;28;20037;-72
2022/01/01 04:32:27;;;;;;;16.92;8.45;;;;;;;15.67;93.65;101464.63;5038523;28;20118;-72
2022/01/01 04:34:54;;;;;;;19.85;8.93;;;;;;;15.67;93.50;101461.94;5029532;28;20037;-72
2022/01/01 04:37:24;;;;;;;23.35;9.38;;;;;;;15.67;93.29;101464.63;5027563;28;20053;-71
2022/01/01 04:39:58;;;;;;;19.50;10.18;;;;;;;15.66;93.31;101468.16;5043189;28;20045;-71
2022/01/01 04:42:25;;;;;;;22.35;9.43;;;;;;;15.68;93.32;101483.28;5028537;28;20042;-72
2022/01/01 04:44:54;;;;;;;18.38;8.88;;;;;;;15.68;93.48;101477.06;5029395;28;20046;-72
2022/01/01 04:47:22;;;;;;;25.13;10.55;;;;;;;15.63;93.48;101484.97;5046196;28;20051;-71
2022/01/01 04:49:49;;;;;;;23.35;10.40;;;;;;;15.58;93.46;101475.19;5047918;28;20060;-71
2022/01/01 04:52:17;;;;;;;22.85;9.30;;;;;;;15.53;93.49;101480.50;5029743;28;20045;-71
2022/01/01 04:54:47;;;;;;;22.25;9.52;;;;;;;15.49;93.49;101481.34;5046995;28;20033;-72
2022/01/01 04:57:15;;;;;;;22.20;7.70;;;;;;;15.43;93.43;101487.47;5048576;28;20049;-71
2022/01/01 04:59:43;;;;;;;22.05;8.98;;;;;;;15.38;93.40;101483.00;5048636;28;20503;-71
2022/01/01 05:02:11;;;;;;;21.80;9.98;;;;;;;15.32;93.31;101489.16;5048375;28;20053;-71
2022/01/01 05:04:40;;;;;;;21.35;9.27;;;;;;;15.28;93.25;101487.38;5049801;28;20044;-71
2022/01/01 05:07:07;;;;;;;17.42;8.38;;;;;;;15.26;93.21;101485.56;5047361;28;20044;-71
2022/01/01 05:09:35;;;;;;;20.70;8.82;;;;;;;15.22;93.17;101487.34;5040364;28;20107;-72
2022/01/01 05:12:06;;;;;;;24.90;9.07;;;;;;;15.19;92.94;101487.28;5029034;28;20045;-71
2022/01/01 05:14:35;;;;;;;24.05;9.95;;;;;;;15.15;93.01;101489.03;5029158;28;20042;-72
2022/01/01 05:17:02;;;;;;;25.50;12.38;;;;;;;15.13;92.83;101490.78;5028564;28;20046;-71
2022/01/01 05:19:30;;;;;;;24.25;9.85;;;;;;;15.12;92.79;101496.97;5029209;28;20150;-71
2022/01/01 05:21:57;;;;;;;20.95;8.23;;;;;;;15.11;92.80;101503.19;5028420;28;20624;-72
2022/01/01 05:24:25;;;;;;;18.73;8.85;;;;;;;15.11;92.91;101502.28;5028636;28;20099;-71
2022/01/01 05:26:53;;;;;;;21.63;8.30;;;;;;;15.12;93.02;101504.97;5028616;28;20054;-71
2022/01/01 05:29:22;;;;;;;22.00;8.40;;;;;;;15.16;93.08;101508.56;5026934;28;20049;-71
2022/01/01 05:31:50;;;;;;;16.77;8.15;;;;;;;15.17;93.25;101510.31;5009332;28;20037;-71
2022/01/01 05:34:18;;;;;;;23.77;8.77;;;;;;;15.21;93.21;101512.16;5009547;28;20038;-71
2022/01/01 05:36:46;;;;;;;17.92;7.80;;;;;;;15.25;93.30;101511.28;5019169;28;20044;-71
2022/01/01 05:39:14;;;;;;;18.27;7.57;;;;;;;15.27;93.44;101516.63;5027020;28;20124;-71
2022/01/01 05:41:42;;;;;;;14.10;7.25;;;;;;;15.30;93.49;101521.94;5029014;28;20154;-71
2022/01/01 05:44:09;;;;;;;23.55;9.10;;;;;;;15.30;93.53;101524.59;5019334;28;20045;-72
2022/01/01 05:46:38;;;;;;;19.90;7.85;;;;;;;15.28;93.45;101515.75;5027202;28;20050;-71
2022/01/01 05:49:06;;;;;;;18.52;7.80;;;;;;;15.25;93.56;101526.34;5028963;28;20065;-72
2022/01/01 05:51:34;;;;;;;18.75;8.25;;;;;;;15.20;93.57;101525.41;5027102;28;20046;-71
2022/01/01 05:54:01;;;;;;;21.35;8.02;;;;;;;15.16;93.66;101529.84;5026859;28;20049;-71
2022/01/01 05:56:29;;;;;;;17.63;8.50;;;;;;;15.15;93.72;101534.25;5027251;28;20054;-71
2022/01/01 05:58:56;;;;;;;23.17;10.02;;;;;;;15.14;93.66;101537.78;5028515;28;20091;-72
2022/01/01 06:01:24;;;;;;;23.98;14.52;;;;;;;15.15;93.67;101542.25;5026898;28;20080;-72
2022/01/01 06:03:53;;;;;;;24.70;10.38;;;;;;;15.22;93.68;101540.53;5023853;28;20046;-71
2022/01/01 06:06:21;;;;;;;22.45;11.00;;;;;;;15.28;93.75;101542.34;5011602;28;20057;-71
2022/01/01 06:08:49;;;;;;;22.20;8.82;;;;;;;15.33;93.74;101538.84;5027218;28;20448;-71
2022/01/01 06:11:16;;;;;;;17.27;8.00;;;;;;;15.39;93.83;101538.91;5027086;28;20128;-72
2022/01/01 06:13:44;;;;;;;22.15;8.85;;;;;;;15.45;93.82;101536.28;5028408;28;20043;-72
2022/01/01 06:16:12;;;;;;;22.35;9.07;;;;;;;15.47;93.71;101539.84;5043478;28;20417;-71
2022/01/01 06:18:39;;;;;;;18.10;8.32;;;;;;;15.49;93.70;101542.53;5028769;28;20120;-71
2022/01/01 06:21:08;;;;;;;18.73;8.55;;;;;;;15.49;93.66;101540.72;5028915;28;20402;-71
2022/01/01 06:23:37;;;;;;;16.65;6.88;;;;;;;15.54;93.77;101559.47;5046412;28;20045;-71
2022/01/01 06:26:05;;;;;;;24.38;9.02;;;;;;;15.65;93.88;101556.88;5051927;28;20041;-71
2022/01/01 06:28:32;;;;;;;25.60;10.05;;;;;;;15.74;93.75;101560.50;5050205;28;20051;-72
2022/01/01 06:31:00;;;;;;;25.73;9.40;;;;;;;15.81;93.69;101556.13;5020321;28;20053;-72
2022/01/01 06:33:28;;;;;;;20.63;9.45;;;;;;;15.83;93.65;101552.56;5031670;28;20117;-71
2022/01/01 06:35:57;;;;;;;22.10;10.00;;;;;;;15.87;93.58;101556.16;5013892;28;20386;-71
2022/01/01 06:38:26;;;;;;;20.65;7.95;;;;;;;15.88;93.61;101561.47;5013781;28;20120;-71
2022/01/01 06:40:53;;;;;;;23.40;8.48;;;;;;;15.84;93.71;101559.69;5029693;28;20083;-72
2022/01/01 06:43:23;;;;;;;19.23;7.30;;;;;;;15.82;93.69;101561.44;5013333;28;20107;-71
2022/01/01 06:45:51;;;;;;;21.52;8.30;;;;;;;15.84;93.82;101559.69;5047568;28;20044;-72
2022/01/01 06:48:19;;;;;;;16.33;7.30;;;;;;;15.87;93.84;101573.03;5049318;28;20571;-71
2022/01/01 06:50:47;;;;;;;10.23;5.53;;;;;;;15.92;93.91;101575.72;5050311;28;20047;-71
2022/01/01 06:53:14;;;;;;;19.13;7.97;;;;;;;15.95;93.96;101573.94;5050270;28;20156;-71
2022/01/01 06:55:43;;;;;;;23.33;8.15;;;;;;;16.00;93.85;101578.44;5050185;28;20041;-71
2022/01/01 06:58:11;;;;;;;14.55;6.85;;;;;;;16.02;93.73;101576.66;5049844;28;20072;-71
2022/01/01 07:00:39;;;;;;;13.40;6.28;;;;;;;16.05;93.63;101574.91;5049588;28;20037;-71
2022/01/01 07:03:08;;;;;;;21.40;8.55;;;;;;;16.08;93.62;101579.38;5047405;28;20394;-71
2022/01/01 07:05:35;;;;;;;14.40;8.40;;;;;;;16.04;93.52;101588.22;5042404;28;20053;-71
2022/01/01 07:08:03;;;;;;;17.38;7.47;;;;;;;15.98;93.49;101590.84;5030866;28;20061;-71
2022/01/01 07:10:31;;;;;;;18.90;7.30;;;;;;;15.98;93.51;101585.50;5031436;28;20045;-71
2022/01/01 07:13:00;;;;;;;15.13;7.00;;;;;;;15.99;93.83;101598.84;5031112;28;20154;-72
2022/01/01 07:15:27;;;;;;;15.50;6.25;;;;;;;16.01;93.84;101597.09;5029489;28;20383;-71
2022/01/01 07:17:55;;;;;;;21.80;7.63;;;;;;;16.03;93.80;101605.06;5030383;28;20037;-71
2022/01/01 07:20:23;;;;;;;20.90;6.88;;;;;;;16.07;93.75;101609.56;5032453;28;20049;-71
2022/01/01 07:22:51;;;;;;;16.15;6.57;;;;;;;16.07;93.79;101602.47;5044929;28;20052;-72
2022/01/01 07:25:19;;;;;;;20.15;7.53;;;;;;;16.10;93.70;101607.78;5031213;28;20057;-71
2022/01/01 07:27:47;;;;;;;23.52;7.65;;;;;;;16.17;93.59;101614.03;5030866;28;20126;-71
2022/01/01 07:30:17;;;;;;;19.70;7.97;;;;;;;16.27;93.76;101613.25;5029742;28;20088;-72
2022/01/01 07:32:46;;;;;;;17.40;6.93;;;;;;;16.32;93.64;101612.38;5030414;28;20068;-71
2022/01/01 07:35:16;;;;;;;19.70;7.88;;;;;;;16.37;93.61;101609.72;5030445;28;20049;-72
2022/01/01 07:37:44;;;;;;;20.75;8.55;;;;;;;16.42;93.57;101607.06;5028474;28;20397;-72
2022/01/01 07:40:13;;;;;;;20.08;11.55;;;;;;;16.48;93.36;101605.34;5029205;28;20498;-73
2022/01/01 07:42:42;;;;;;;27.35;14.52;;;;;;;16.53;93.31;101608.03;5026771;28;20560;-71
2022/01/01 07:45:11;;;;;;;21.33;12.60;;;;;;;16.59;93.20;101611.63;5028684;28;20717;-71
2022/01/01 07:47:41;;;;;;;30.92;18.20;;;;;;;16.68;93.02;101610.78;5026708;28;20041;-71
2022/01/01 07:50:10;;;;;;;23.10;14.40;;;;;;;16.71;92.88;101611.72;5027647;28;20045;-72
2022/01/01 07:52:37;;;;;;;19.83;14.23;;;;;;;16.73;92.68;101611.72;5028917;28;20056;-72
2022/01/01 07:55:05;;;;;;;21.75;10.43;;;;;;;16.69;92.67;101616.13;5028535;28;20561;-72
2022/01/01 07:57:33;;;;;;;19.58;12.20;;;;;;;16.64;92.82;101609.00;5025372;28;20064;-72
2022/01/01 08:00:03;;;;;;;21.58;10.30;;;;;;;16.51;93.20;101617.81;5029812;28;20494;-72
2022/01/01 08:02:32;;;;;;;23.90;17.08;;;;;;;16.44;93.49;101623.97;5021888;28;20046;-71
2022/01/01 08:05:02;;;;;;;26.15;17.90;;;;;;;16.47;93.59;101632.91;5027990;28;20042;-71
2022/01/01 08:07:29;;;;;;;31.98;20.67;;;;;;;16.39;93.71;101634.63;5024668;28;20060;-72
2022/01/01 08:09:57;;;;;;;20.23;12.75;;;;;;;16.33;93.75;101632.81;5026684;28;20038;-72
2022/01/01 08:12:25;;;;;;;21.15;15.75;;;;;;;16.33;93.82;101635.47;5028380;28;20042;-71
2022/01/01 08:14:56;;;;;;;29.08;23.73;;;;;;;16.31;93.92;101631.91;5026612;28;20052;-72
2022/01/01 08:17:25;;;;;;;18.70;10.45;;;;;;;16.29;93.90;101632.78;5027743;28;20436;-72
2022/01/01 08:19:53;;;;;;;25.17;19.10;;;;;;;16.35;93.89;101633.69;5027772;28;20036;-72
2022/01/01 08:22:22;;;;;;;20.88;9.40;;;;;;;16.44;94.03;101626.66;5027512;28;20466;-72
2022/01/01 08:24:49;;;;;;;19.48;11.23;;;;;;;16.52;94.01;101625.81;5027995;28;20041;-72
2022/01/01 08:27:17;;;;;;;18.88;11.32;;;;;;;16.56;93.82;101614.28;5025809;28;20046;-72
2022/01/01 08:29:45;;;;;;;24.60;15.68;;;;;;;16.49;93.66;101615.13;5028773;28;20045;-72
2022/01/01 08:32:13;;;;;;;24.13;12.35;;;;;;;16.44;93.42;101608.88;5021989;28;20095;-72
2022/01/01 08:34:41;;;;;;;22.83;17.48;;;;;;;16.43;93.43;101615.09;5021626;28;20076;-73
2022/01/01 08:37:10;;;;;;;22.33;16.73;;;;;;;16.51;93.39;101610.69;5042898;28;20051;-72
2022/01/01 08:39:39;;;;;;;24.80;19.27;;;;;;;16.57;93.39;101608.06;5022721;28;20041;-70
2022/01/01 08:42:09;;;;;;;22.02;11.02;;;;;;;16.62;93.35;101609.00;5022633;28;20172;-72
2022/01/01 08:44:37;;;;;;;19.75;10.88;;;;;;;16.66;93.18;101613.47;5023425;28;20107;-74
2022/01/01 08:47:05;;;;;;;12.55;7.22;;;;;;;16.78;93.17;101619.75;5026772;28;20565;-73
2022/01/01 08:49:33;;;;;;;21.08;9.38;;;;;;;16.80;92.59;101616.22;5026236;28;20041;-72
2022/01/01 08:52:01;;;;;;;17.50;9.07;;;;;;;16.89;92.59;101615.31;5026627;28;20271;-73
2022/01/01 08:54:29;;;;;;;19.05;6.97;;;;;;;16.91;92.38;101613.56;5026671;28;20044;-73
2022/01/01 08:56:58;;;;;;;20.10;8.20;;;;;;;16.95;92.42;101620.69;5019068;28;20046;-72
2022/01/01 08:59:26;;;;;;;19.85;8.63;;;;;;;16.98;92.53;101616.25;5027858;28;20511;-73
2022/01/01 09:01:54;;;;;;;17.27;8.45;;;;;;;17.04;92.35;101618.06;5030682;28;20053;-72
2022/01/01 09:04:24;;;;;;;16.48;6.88;;;;;;;17.05;92.47;101617.16;5019598;28;20050;-72
2022/01/01 09:06:51;;;;;;;18.98;8.80;;;;;;;16.98;92.49;101618.94;5027696;28;20571;-72
2022/01/01 09:09:19;;;;;;;18.02;6.95;;;;;;;16.97;92.61;101618.91;5025731;28;20448;-72
2022/01/01 09:11:47;;;;;;;12.57;6.75;;;;;;;16.95;92.67;101616.22;5026946;28;20498;-72
2022/01/01 09:14:15;;;;;;;21.15;7.30;;;;;;;17.01;92.68;101618.03;5027297;28;20145;-72
2022/01/01 09:16:43;;;;;;;15.88;7.82;;;;;;;17.03;92.66;101614.50;5026986;28;20040;-72
2022/01/01 09:19:12;;;;;;;26.63;13.38;;;;;;;17.03;92.39;101619.81;5025781;28;20045;-73
2022/01/01 09:21:40;;;;;;;21.48;10.63;;;;;;;17.07;92.11;101612.69;5022498;28;20038;-72
2022/01/01 09:24:08;;;;;;;12.98;5.80;;;;;;;17.10;92.07;101610.06;5018695;28;20061;-72
2022/01/01 09:26:36;;;;;;;17.33;6.60;;;;;;;17.13;91.74;101620.75;5026826;28;20048;-72
2022/01/01 09:29:06;;;;;;;16.33;7.80;;;;;;;17.19;91.31;101614.53;5032187;28;20159;-72
2022/01/01 09:31:35;;;;;;;15.88;7.75;;;;;;;17.19;90.91;101607.44;5038932;28;20056;-72
2022/01/01 09:34:05;;;;;;;20.88;11.70;;;;;;;17.16;90.47;101603.84;5041605;28;20460;-72
2022/01/01 09:36:33;;;;;;;20.05;9.68;;;;;;;17.11;90.10;101595.84;5045773;28;20099;-71
2022/01/01 09:39:00;;;;;;;20.10;9.52;;;;;;;17.07;89.98;101594.03;5045844;28;20067;-71
2022/01/01 09:41:30;;;;;;;20.88;13.27;;;;;;;16.98;89.81;101584.25;5045928;28;20036;-70
2022/01/01 09:43:58;;;;;;;22.10;13.15;;;;;;;17.01;90.00;101578.00;5051763;28;20071;-71
2022/01/01 09:46:26;;;;;;;23.38;11.90;;;;;;;17.07;89.92;101583.34;5045469;28;20115;-70
2022/01/01 09:48:56;;;;;;;31.30;19.30;;;;;;;17.19;89.85;101586.06;5047018;28;20094;-70
2022/01/01 09:51:25;;;;;;;37.47;21.25;;;;;;;17.26;89.83;101581.63;5043857;28;20052;-70
2022/01/01 09:53:52;;;;;;;15.25;7.70;;;;;;;17.24;89.77;101573.63;5045522;28;20136;-70
2022/01/01 09:56:20;;;;;;;26.42;15.55;;;;;;;17.21;89.50;101570.03;5050726;28;20045;-70
2022/01/01 09:58:48;;;;;;;23.80;13.95;;;;;;;17.17;89.23;101579.84;5051674;28;20041;-70
2022/01/01 10:01:16;;;;;;;16.10;7.60;;;;;;;17.23;89.27;101574.50;5050129;28;20049;-71
2022/01/01 10:03:44;;;;;;;19.02;9.27;;;;;;;17.20;89.14;101574.47;5052327;28;20408;-71
2022/01/01 10:06:15;;;;;;;26.92;16.17;;;;;;;17.24;89.15;101565.63;5045127;28;20041;-70
2022/01/01 10:08:45;;;;;;;12.27;6.43;;;;;;;17.26;88.97;101579.88;5033134;28;20045;-70
2022/01/01 10:11:17;;;;;;;17.10;8.00;;;;;;;17.30;88.98;101578.06;5054046;28;20045;-70
2022/01/01 10:13:46;;;;;;;17.13;9.63;;;;;;;17.30;88.92;101575.41;5044844;28;20558;-70
2022/01/01 10:16:15;;;;;;;16.30;6.25;;;;;;;17.52;88.63;101577.22;5049188;28;20041;-70
2022/01/01 10:18:45;;;;;;;18.65;7.63;;;;;;;17.62;88.32;101575.44;5049185;28;20687;-70
2022/01/01 10:21:16;;;;;;;13.63;5.53;;;;;;;17.64;87.96;101576.34;5051200;28;20139;-70
2022/01/01 10:23:46;;;;;;;13.57;6.63;;;;;;;17.67;87.50;101576.31;5040521;28;20060;-70
2022/01/01 10:29:09;;;;;;;11.25;4.68;;;;;;;17.75;86.42;101580.78;5049485;28;20435;-69
2022/01/01 10:31:39;;;;;;;14.80;7.65;;;;;;;17.76;86.00;101579.00;5050187;28;20049;-68
2022/01/01 10:34:12;;;;;;;17.38;7.85;;;;;;;17.82;86.17;101584.34;5051198;28;20068;-68
2022/01/01 10:36:45;;;;;;;12.87;7.63;;;;;;;17.86;85.97;101583.44;5049937;28;20045;-68
2022/01/01 10:39:15;;;;;;;13.27;5.60;;;;;;;17.82;85.86;101573.66;5048316;28;20452;-68
2022/01/01 10:41:48;;;;;;;13.18;6.15;;;;;;;17.74;85.09;101573.66;5030215;28;20367;-69
2022/01/01 10:44:17;;;;;;;12.07;5.00;;;;;;;17.62;85.37;101575.44;5030957;28;20052;-69
2022/01/01 10:46:45;;;;;;;10.57;4.63;;;;;;;17.56;85.36;101572.75;5040751;28;20123;-69
2022/01/01 10:49:51;;;;;;;14.43;6.82;;;;;;;17.55;84.95;101569.19;5037196;28;20493;-69
2022/01/01 10:52:24;;;;;;;11.82;6.10;;;;;;;17.59;84.96;101570.09;5004030;28;20042;-69
2022/01/01 10:54:57;;;;;;;11.18;5.82;;;;;;;17.61;84.56;101566.53;5021229;28;20045;-69
2022/01/01 10:57:33;;;;;;;13.98;5.53;;;;;;;17.65;84.36;101568.34;5029694;28;20137;-69
2022/01/01 11:00:13;;;;;;;10.48;4.53;;;;;;;17.61;83.60;101563.88;5035190;28;20033;-69
2022/01/01 11:02:44;;;;;;;12.57;5.80;;;;;;;17.61;84.05;101563.88;5061457;28;20493;-69
2022/01/01 11:05:14;;;;;;;13.65;5.90;;;;;;;17.71;83.68;101563.00;5048811;28;20061;-70
2022/01/01 11:07:52;;;;;;;18.80;9.40;;;;;;;17.75;83.61;101547.84;5029133;28;20052;-69
2022/01/01 11:10:21;;;;;;;16.42;8.25;;;;;;;17.68;83.08;101549.63;5044059;28;20079;-69
2022/01/01 11:12:49;;;;;;;12.45;7.80;;;;;;;17.68;83.66;101544.28;5050068;28;20562;-69
2022/01/01 11:15:17;;;;;;;15.82;7.63;;;;;;;17.77;83.47;101541.63;5065883;28;20072;-69
2022/01/01 11:17:46;;;;;;;12.18;7.22;;;;;;;17.84;83.23;101531.81;5050416;28;20075;-69
2022/01/01 11:20:14;;;;;;;18.02;8.75;;;;;;;17.85;83.04;101528.25;5049899;28;20037;-70
2022/01/01 11:22:44;;;;;;;12.07;7.22;;;;;;;17.85;82.89;101520.25;5049681;28;20037;-70
2022/01/01 11:25:12;;;;;;;13.52;7.15;;;;;;;17.76;82.21;101517.56;5048131;28;20049;-70